Acushnet, Massachusetts
Current Conditions -  °F | °C
As of 2:53 PM on Friday 28 Nov 2014 (Local Time) from KEWB Reporting Station
Few Clouds Few Clouds  
Wind Chill: 29°   Ceiling: Unl
Heat Index: 36°   Visibility: 10mi
Dew Point: 19°   Wind: 9mph
Humidity: 50%   Direction: 320°NW
Pressure: 30.06"   Gusts: 17mph
Location:  41.68°N, 70.91°W
Report Text: KEWB 281953Z 32008G15KT 10SM FEW042 02/M07 A3006 RMK AO2 SLP180 T00221072
Loading
Personal Weather Stations






























Interactive Weather Map New forecast layout! Learn more

10-Day Weather Forecast

Advertisements
Track Severe Weather on mobile